Galileo — SX2040 — position and weather

sailwx.info

Track history (hours):
 
Tides and Currents Weather Stations Pressure Air Temp Water Temp Dewpoint Dewpoint Depression Visibility Wind Speed Wind Dir Waves Ship Positions

Galileo

Last reported at 2014-Oct-21 09:32 UTC. Time now 2014-Oct-21 10:22 UTC.
Position N 36°25' E 025°26'.

Length 40 m; draft 3 m.

Type: Passenger vessel. MMSI: 239299000.

Date/timePositionNaut miles runAvg speedWind from/ knotsBaromVisibWave heightAir tempDewpointWater temp
2014-Oct-21 09:32N 36°25' E 025°26'0 0.0
2014-Oct-21 08:32N 36°25' E 025°26'0 0.0
2014-Oct-21 07:32N 36°25' E 025°26'6 6.6
2014-Oct-21 06:33N 36°28' E 025°19'10 9.8
2014-Oct-21 05:33N 36°30' E 025°07'98 4.1
2014-Oct-20 05:19N 37°30' E 023°29'4 0.3
2014-Oct-19 13:25N 37°33' E 023°26'7 8.8
2014-Oct-19 12:33N 37°40' E 023°25'4 4.4
2014-Oct-19 11:33N 37°45' E 023°26'0 0.0
2014-Oct-19 10:34N 37°45' E 023°26'0 0.0
2014-Oct-19 09:34N 37°45' E 023°26'0 0.0
2014-Oct-19 08:33N 37°45' E 023°26'0 0.0
2014-Oct-19 07:33N 37°45' E 023°26'0 0.0
2014-Oct-19 06:33N 37°45' E 023°26'0 0.0
2014-Oct-19 05:34N 37°45' E 023°26'0 0.0
2014-Oct-19 04:33N 37°45' E 023°26'0 0.0
2014-Oct-19 03:33N 37°45' E 023°26'0 0.0
2014-Oct-19 02:34N 37°45' E 023°26'0 0.0
2014-Oct-19 01:34N 37°45' E 023°26'0 0.0
2014-Oct-19 00:34N 37°45' E 023°26'0 0.0
2014-Oct-18 23:34N 37°45' E 023°26'0 0.0
2014-Oct-18 22:34N 37°45' E 023°26'0 0.0
2014-Oct-18 21:34N 37°45' E 023°26'0 0.0
2014-Oct-18 20:33N 37°45' E 023°26'0 0.0
2014-Oct-18 19:34N 37°45' E 023°26'0 0.0
2014-Oct-18 18:33N 37°45' E 023°26'0 0.0
2014-Oct-18 17:33N 37°45' E 023°26'0 0.0
2014-Oct-18 16:33N 37°45' E 023°26'0 0.0
2014-Oct-18 15:33N 37°45' E 023°26'5 4.7
2014-Oct-18 14:34N 37°48' E 023°29'9 8.9
2014-Oct-18 13:34N 37°54' E 023°38'2 2.0
2014-Oct-18 12:34N 37°56' E 023°39'0 0.0
2014-Oct-18 11:34N 37°56' E 023°39'0 0.0
2014-Oct-18 10:33N 37°56' E 023°39'0 0.0
2014-Oct-18 09:33N 37°56' E 023°39'0 0.0
2014-Oct-18 08:34N 37°56' E 023°39'0 0.0
2014-Oct-18 07:34N 37°56' E 023°39'0 0.0
2014-Oct-18 06:33N 37°56' E 023°39'0 0.0
2014-Oct-18 05:34N 37°56' E 023°39'0 0.0
2014-Oct-18 04:34N 37°56' E 023°39'0 0.0
2014-Oct-18 03:34N 37°56' E 023°39'0 0.0
2014-Oct-18 02:34N 37°56' E 023°39'0 0.0
2014-Oct-18 01:34N 37°56' E 023°39'0 0.0
2014-Oct-18 00:33N 37°56' E 023°39'0 0.0
2014-Oct-17 23:34N 37°56' E 023°39'0 0.0
2014-Oct-17 22:34N 37°56' E 023°39'0 0.0
2014-Oct-17 21:34N 37°56' E 023°39'0 0.0
2014-Oct-17 20:34N 37°56' E 023°39'0 0.0
2014-Oct-17 19:34N 37°56' E 023°39'0 0.0
2014-Oct-17 18:34N 37°56' E 023°39'0 0.0
2014-Oct-17 17:34N 37°56' E 023°39'0 0.0
2014-Oct-17 16:34N 37°56' E 023°39'0 0.0
2014-Oct-17 15:33N 37°56' E 023°39'3 2.6
2014-Oct-17 14:33N 37°54' E 023°40'9 9.2
2014-Oct-17 13:33N 37°45' E 023°45'60 5.8
2014-Oct-17 03:11N 37°27' E 024°57'0 0.0
2014-Oct-17 01:30N 37°27' E 024°57'0 0.0
2014-Oct-17 00:30N 37°27' E 024°57'0 0.0
2014-Oct-16 23:30N 37°27' E 024°57'0 0.0
2014-Oct-16 22:28N 37°27' E 024°57'0 0.0
2014-Oct-16 21:18N 37°27' E 024°57'0 0.0
2014-Oct-16 20:29N 37°27' E 024°57'0 0.0
2014-Oct-16 19:29N 37°27' E 024°57'0 0.0
2014-Oct-16 18:29N 37°27' E 024°57'0 0.0
2014-Oct-16 17:33N 37°27' E 024°57'0 0.0
2014-Oct-16 16:33N 37°27' E 024°57'0 0.0
2014-Oct-16 15:29N 37°27' E 024°57'0 0.0
2014-Oct-16 14:30N 37°27' E 024°57'0 0.0
2014-Oct-16 13:21N 37°27' E 024°57'0 0.0
2014-Oct-16 12:28N 37°27' E 024°57'0 0.0
2014-Oct-16 11:24N 37°27' E 024°57'0 0.0
2014-Oct-16 10:28N 37°27' E 024°57'0 0.0
2014-Oct-16 09:23N 37°27' E 024°57'2 1.5
2014-Oct-16 08:14N 37°26' E 024°59'0 0.0
2014-Oct-16 07:29N 37°26' E 024°59'0 0.3
2014-Oct-16 06:30N 37°26' E 024°59'9 9.5
2014-Oct-16 05:33N 37°27' E 025°10'7 6.5
2014-Oct-16 04:24N 37°28' E 025°20'0 0.0
2014-Oct-16 03:33N 37°28' E 025°20'0 0.0
2014-Oct-16 02:20N 37°28' E 025°20'0 0.0
2014-Oct-16 01:25N 37°28' E 025°20'0 0.0
2014-Oct-16 00:33N 37°28' E 025°20'0 0.0
2014-Oct-15 23:29N 37°28' E 025°20'0 0.0
2014-Oct-15 22:27N 37°28' E 025°20'0 0.0
2014-Oct-15 21:16N 37°28' E 025°20'0 0.0
2014-Oct-15 20:31N 37°28' E 025°20'0 0.0
2014-Oct-15 19:32N 37°28' E 025°20'0 0.0
2014-Oct-15 18:31N 37°28' E 025°20'0 0.0
2014-Oct-15 17:33N 37°28' E 025°20'0 0.0
2014-Oct-15 16:33N 37°28' E 025°20'0 0.0
2014-Oct-15 15:24N 37°28' E 025°20'0 0.0
2014-Oct-15 14:28N 37°28' E 025°20'0 0.0
2014-Oct-15 13:31N 37°28' E 025°20'0 0.0
2014-Oct-15 12:32N 37°28' E 025°20'0 0.0
2014-Oct-15 11:32N 37°28' E 025°20'0 0.0
2014-Oct-15 10:26N 37°28' E 025°20'0 0.0
2014-Oct-15 09:31N 37°28' E 025°20'0 0.0
2014-Oct-15 08:31N 37°28' E 025°20'0 0.0
2014-Oct-15 07:31N 37°28' E 025°20'0 0.0
2014-Oct-15 06:19N 37°28' E 025°20'3 4.2
2014-Oct-15 05:33N 37°25' E 025°17'10 9.5
2014-Oct-15 04:29N 37°16' E 025°13'11 7.8
2014-Oct-15 03:05N 37°05' E 025°09'0 0.0
2014-Oct-15 02:29N 37°05' E 025°09'0 0.0
2014-Oct-14 21:13N 37°05' E 025°09'0 0.0
2014-Oct-14 19:20N 37°05' E 025°09'0 0.0
2014-Oct-14 18:33N 37°05' E 025°09'0 0.0
2014-Oct-14 15:23N 37°05' E 025°09'0 0.0
2014-Oct-14 13:23N 37°05' E 025°09'0 0.0
2014-Oct-14 12:31N 37°05' E 025°09'0 0.0
2014-Oct-14 11:19N 37°05' E 025°09'0 0.0
2014-Oct-14 10:21N 37°05' E 025°09'14 2.7
2014-Oct-14 05:17N 36°53' E 025°00'19 9.4
2014-Oct-14 03:14N 36°38' E 025°15'7 9.8
2014-Oct-14 02:29N 36°31' E 025°19'8 8.7
2014-Oct-14 01:33N 36°25' E 025°26'0 0.1
2014-Oct-14 00:33N 36°25' E 025°26'0 0.0
2014-Oct-13 23:32N 36°25' E 025°26'0 0.0
2014-Oct-13 22:32N 36°25' E 025°26'0 0.0
2014-Oct-13 21:32N 36°25' E 025°26'0 0.0
2014-Oct-13 20:34N 36°25' E 025°26'0 0.0
2014-Oct-13 19:32N 36°25' E 025°26'0 0.0
2014-Oct-13 18:32N 36°25' E 025°26'0 0.0
2014-Oct-13 17:32N 36°25' E 025°26'0 0.0
2014-Oct-13 16:32N 36°25' E 025°26'0 0.0
2014-Oct-13 15:33N 36°25' E 025°26'0 0.0
2014-Oct-13 14:33N 36°25' E 025°26'0 0.0
2014-Oct-13 13:33N 36°25' E 025°26'0 0.0
2014-Oct-13 12:32N 36°25' E 025°26'0 0.0
2014-Oct-13 11:32N 36°25' E 025°26'0 0.0
2014-Oct-13 10:33N 36°25' E 025°26'0 0.0
2014-Oct-13 09:33N 36°25' E 025°26'0 0.0
2014-Oct-13 08:32N 36°25' E 025°26'0 0.0
2014-Oct-13 07:32N 36°25' E 025°26'0 0.0
2014-Oct-13 06:33N 36°25' E 025°26'0 0.0
2014-Oct-13 05:33N 36°25' E 025°26'5 5.3
2014-Oct-13 04:33N 36°28' E 025°20'10 9.6
2014-Oct-13 03:32N 36°32' E 025°09'11 9.6
2014-Oct-13 02:25N 36°37' E 024°57'0 0.2
2014-Oct-13 01:32N 36°37' E 024°57'0 0.0
2014-Oct-13 00:31N 36°37' E 024°57'0 0.0
2014-Oct-12 23:32N 36°37' E 024°57'0 0.0
2014-Oct-12 22:29N 36°37' E 024°57'0 0.0
2014-Oct-12 21:33N 36°37' E 024°57'0 0.0
2014-Oct-12 20:32N 36°37' E 024°57'0 0.0
2014-Oct-12 19:24N 36°37' E 024°57'0 0.0
2014-Oct-12 18:33N 36°37' E 024°57'0 0.0
2014-Oct-12 17:32N 36°37' E 024°57'0 0.0
2014-Oct-12 16:32N 36°37' E 024°57'0 0.0
2014-Oct-12 15:33N 36°37' E 024°57'0 0.0
2014-Oct-12 14:33N 36°37' E 024°57'0 0.0
2014-Oct-12 13:32N 36°37' E 024°57'87 6.2
2014-Oct-11 23:30N 37°29' E 023°29'5 0.6
2014-Oct-11 15:05N 37°35' E 023°28'15 9.8
2014-Oct-11 13:33N 37°48' E 023°36'8 8.3
2014-Oct-11 12:33N 37°56' E 023°39'0 0.0
2014-Oct-11 11:33N 37°56' E 023°39'0 0.0
2014-Oct-11 10:33N 37°56' E 023°39'0 0.0
2014-Oct-11 09:33N 37°56' E 023°39'  
Track history (hours):
 
Tides and Currents Weather Stations Pressure Air Temp Water Temp Dewpoint Dewpoint Depression Visibility Wind Speed Wind Dir Waves Ship Positions

Galileo

Last reported at 2014-Oct-21 09:32 UTC. Time now 2014-Oct-21 10:22 UTC.
Position N 36°25' E 025°26'.

Length 40 m; draft 3 m.

Type: Passenger vessel. MMSI: 239299000.

Date/timePositionNaut miles runAvg speedWind from/ knotsBaromVisibWave heightAir tempDewpointWater temp
2014-Oct-21 09:32N 36°25' E 025°26'0 0.0
2014-Oct-21 08:32N 36°25' E 025°26'0 0.0
2014-Oct-21 07:32N 36°25' E 025°26'6 6.6
2014-Oct-21 06:33N 36°28' E 025°19'10 9.8
2014-Oct-21 05:33N 36°30' E 025°07'98 4.1
2014-Oct-20 05:19N 37°30' E 023°29'4 0.3
2014-Oct-19 13:25N 37°33' E 023°26'7 8.8
2014-Oct-19 12:33N 37°40' E 023°25'4 4.4
2014-Oct-19 11:33N 37°45' E 023°26'0 0.0
2014-Oct-19 10:34N 37°45' E 023°26'0 0.0
2014-Oct-19 09:34N 37°45' E 023°26'0 0.0
2014-Oct-19 08:33N 37°45' E 023°26'0 0.0
2014-Oct-19 07:33N 37°45' E 023°26'0 0.0
2014-Oct-19 06:33N 37°45' E 023°26'0 0.0
2014-Oct-19 05:34N 37°45' E 023°26'0 0.0
2014-Oct-19 04:33N 37°45' E 023°26'0 0.0
2014-Oct-19 03:33N 37°45' E 023°26'0 0.0
2014-Oct-19 02:34N 37°45' E 023°26'0 0.0
2014-Oct-19 01:34N 37°45' E 023°26'0 0.0
2014-Oct-19 00:34N 37°45' E 023°26'0 0.0
2014-Oct-18 23:34N 37°45' E 023°26'0 0.0
2014-Oct-18 22:34N 37°45' E 023°26'0 0.0
2014-Oct-18 21:34N 37°45' E 023°26'0 0.0
2014-Oct-18 20:33N 37°45' E 023°26'0 0.0
2014-Oct-18 19:34N 37°45' E 023°26'0 0.0
2014-Oct-18 18:33N 37°45' E 023°26'0 0.0
2014-Oct-18 17:33N 37°45' E 023°26'0 0.0
2014-Oct-18 16:33N 37°45' E 023°26'0 0.0
2014-Oct-18 15:33N 37°45' E 023°26'5 4.7
2014-Oct-18 14:34N 37°48' E 023°29'9 8.9
2014-Oct-18 13:34N 37°54' E 023°38'2 2.0
2014-Oct-18 12:34N 37°56' E 023°39'0 0.0
2014-Oct-18 11:34N 37°56' E 023°39'0 0.0
2014-Oct-18 10:33N 37°56' E 023°39'0 0.0
2014-Oct-18 09:33N 37°56' E 023°39'0 0.0
2014-Oct-18 08:34N 37°56' E 023°39'0 0.0
2014-Oct-18 07:34N 37°56' E 023°39'0 0.0
2014-Oct-18 06:33N 37°56' E 023°39'0 0.0
2014-Oct-18 05:34N 37°56' E 023°39'0 0.0
2014-Oct-18 04:34N 37°56' E 023°39'0 0.0
2014-Oct-18 03:34N 37°56' E 023°39'0 0.0
2014-Oct-18 02:34N 37°56' E 023°39'0 0.0
2014-Oct-18 01:34N 37°56' E 023°39'0 0.0
2014-Oct-18 00:33N 37°56' E 023°39'0 0.0
2014-Oct-17 23:34N 37°56' E 023°39'0 0.0
2014-Oct-17 22:34N 37°56' E 023°39'0 0.0
2014-Oct-17 21:34N 37°56' E 023°39'0 0.0
2014-Oct-17 20:34N 37°56' E 023°39'0 0.0
2014-Oct-17 19:34N 37°56' E 023°39'0 0.0
2014-Oct-17 18:34N 37°56' E 023°39'0 0.0
2014-Oct-17 17:34N 37°56' E 023°39'0 0.0
2014-Oct-17 16:34N 37°56' E 023°39'0 0.0
2014-Oct-17 15:33N 37°56' E 023°39'3 2.6
2014-Oct-17 14:33N 37°54' E 023°40'9 9.2
2014-Oct-17 13:33N 37°45' E 023°45'60 5.8
2014-Oct-17 03:11N 37°27' E 024°57'0 0.0
2014-Oct-17 01:30N 37°27' E 024°57'0 0.0
2014-Oct-17 00:30N 37°27' E 024°57'0 0.0
2014-Oct-16 23:30N 37°27' E 024°57'0 0.0
2014-Oct-16 22:28N 37°27' E 024°57'0 0.0
2014-Oct-16 21:18N 37°27' E 024°57'0 0.0
2014-Oct-16 20:29N 37°27' E 024°57'0 0.0
2014-Oct-16 19:29N 37°27' E 024°57'0 0.0
2014-Oct-16 18:29N 37°27' E 024°57'0 0.0
2014-Oct-16 17:33N 37°27' E 024°57'0 0.0
2014-Oct-16 16:33N 37°27' E 024°57'0 0.0
2014-Oct-16 15:29N 37°27' E 024°57'0 0.0
2014-Oct-16 14:30N 37°27' E 024°57'0 0.0
2014-Oct-16 13:21N 37°27' E 024°57'0 0.0
2014-Oct-16 12:28N 37°27' E 024°57'0 0.0
2014-Oct-16 11:24N 37°27' E 024°57'0 0.0
2014-Oct-16 10:28N 37°27' E 024°57'0 0.0
2014-Oct-16 09:23N 37°27' E 024°57'2 1.5
2014-Oct-16 08:14N 37°26' E 024°59'0 0.0
2014-Oct-16 07:29N 37°26' E 024°59'0 0.3
2014-Oct-16 06:30N 37°26' E 024°59'9 9.5
2014-Oct-16 05:33N 37°27' E 025°10'7 6.5
2014-Oct-16 04:24N 37°28' E 025°20'0 0.0
2014-Oct-16 03:33N 37°28' E 025°20'0 0.0
2014-Oct-16 02:20N 37°28' E 025°20'0 0.0
2014-Oct-16 01:25N 37°28' E 025°20'0 0.0
2014-Oct-16 00:33N 37°28' E 025°20'0 0.0
2014-Oct-15 23:29N 37°28' E 025°20'0 0.0
2014-Oct-15 22:27N 37°28' E 025°20'0 0.0
2014-Oct-15 21:16N 37°28' E 025°20'0 0.0
2014-Oct-15 20:31N 37°28' E 025°20'0 0.0
2014-Oct-15 19:32N 37°28' E 025°20'0 0.0
2014-Oct-15 18:31N 37°28' E 025°20'0 0.0
2014-Oct-15 17:33N 37°28' E 025°20'0 0.0
2014-Oct-15 16:33N 37°28' E 025°20'0 0.0
2014-Oct-15 15:24N 37°28' E 025°20'0 0.0
2014-Oct-15 14:28N 37°28' E 025°20'0 0.0
2014-Oct-15 13:31N 37°28' E 025°20'0 0.0
2014-Oct-15 12:32N 37°28' E 025°20'0 0.0
2014-Oct-15 11:32N 37°28' E 025°20'0 0.0
2014-Oct-15 10:26N 37°28' E 025°20'0 0.0
2014-Oct-15 09:31N 37°28' E 025°20'0 0.0
2014-Oct-15 08:31N 37°28' E 025°20'0 0.0
2014-Oct-15 07:31N 37°28' E 025°20'0 0.0
2014-Oct-15 06:19N 37°28' E 025°20'3 4.2
2014-Oct-15 05:33N 37°25' E 025°17'10 9.5
2014-Oct-15 04:29N 37°16' E 025°13'11 7.8
2014-Oct-15 03:05N 37°05' E 025°09'0 0.0
2014-Oct-15 02:29N 37°05' E 025°09'0 0.0
2014-Oct-14 21:13N 37°05' E 025°09'0 0.0
2014-Oct-14 19:20N 37°05' E 025°09'0 0.0
2014-Oct-14 18:33N 37°05' E 025°09'0 0.0
2014-Oct-14 15:23N 37°05' E 025°09'0 0.0
2014-Oct-14 13:23N 37°05' E 025°09'0 0.0
2014-Oct-14 12:31N 37°05' E 025°09'0 0.0
2014-Oct-14 11:19N 37°05' E 025°09'0 0.0
2014-Oct-14 10:21N 37°05' E 025°09'14 2.7
2014-Oct-14 05:17N 36°53' E 025°00'19 9.4
2014-Oct-14 03:14N 36°38' E 025°15'7 9.8
2014-Oct-14 02:29N 36°31' E 025°19'8 8.7
2014-Oct-14 01:33N 36°25' E 025°26'0 0.1
2014-Oct-14 00:33N 36°25' E 025°26'0 0.0
2014-Oct-13 23:32N 36°25' E 025°26'0 0.0
2014-Oct-13 22:32N 36°25' E 025°26'0 0.0
2014-Oct-13 21:32N 36°25' E 025°26'0 0.0
2014-Oct-13 20:34N 36°25' E 025°26'0 0.0
2014-Oct-13 19:32N 36°25' E 025°26'0 0.0
2014-Oct-13 18:32N 36°25' E 025°26'0 0.0
2014-Oct-13 17:32N 36°25' E 025°26'0 0.0
2014-Oct-13 16:32N 36°25' E 025°26'0 0.0
2014-Oct-13 15:33N 36°25' E 025°26'0 0.0
2014-Oct-13 14:33N 36°25' E 025°26'0 0.0
2014-Oct-13 13:33N 36°25' E 025°26'0 0.0
2014-Oct-13 12:32N 36°25' E 025°26'0 0.0
2014-Oct-13 11:32N 36°25' E 025°26'0 0.0
2014-Oct-13 10:33N 36°25' E 025°26'0 0.0
2014-Oct-13 09:33N 36°25' E 025°26'0 0.0
2014-Oct-13 08:32N 36°25' E 025°26'0 0.0
2014-Oct-13 07:32N 36°25' E 025°26'0 0.0
2014-Oct-13 06:33N 36°25' E 025°26'0 0.0
2014-Oct-13 05:33N 36°25' E 025°26'5 5.3
2014-Oct-13 04:33N 36°28' E 025°20'10 9.6
2014-Oct-13 03:32N 36°32' E 025°09'11 9.6
2014-Oct-13 02:25N 36°37' E 024°57'0 0.2
2014-Oct-13 01:32N 36°37' E 024°57'0 0.0
2014-Oct-13 00:31N 36°37' E 024°57'0 0.0
2014-Oct-12 23:32N 36°37' E 024°57'0 0.0
2014-Oct-12 22:29N 36°37' E 024°57'0 0.0
2014-Oct-12 21:33N 36°37' E 024°57'0 0.0
2014-Oct-12 20:32N 36°37' E 024°57'0 0.0
2014-Oct-12 19:24N 36°37' E 024°57'0 0.0
2014-Oct-12 18:33N 36°37' E 024°57'0 0.0
2014-Oct-12 17:32N 36°37' E 024°57'0 0.0
2014-Oct-12 16:32N 36°37' E 024°57'0 0.0
2014-Oct-12 15:33N 36°37' E 024°57'0 0.0
2014-Oct-12 14:33N 36°37' E 024°57'0 0.0
2014-Oct-12 13:32N 36°37' E 024°57'87 6.2
2014-Oct-11 23:30N 37°29' E 023°29'5 0.6
2014-Oct-11 15:05N 37°35' E 023°28'15 9.8
2014-Oct-11 13:33N 37°48' E 023°36'8 8.3
2014-Oct-11 12:33N 37°56' E 023°39'0 0.0
2014-Oct-11 11:33N 37°56' E 023°39'0 0.0
2014-Oct-11 10:33N 37°56' E 023°39'0 0.0
2014-Oct-11 09:33N 37°56' E 023°39'  

Dump ship's entire track history